sensor_id;sensor_type;location;lat;lon;timestamp;P1;durP1;ratioP1;P2;durP2;ratioP2
40515;SDS011;26216;53.724;9.898;2023-11-19T00:00:50;6.13;;;3.88;;
40515;SDS011;26216;53.724;9.898;2023-11-19T00:03:16;5.95;;;4.18;;
40515;SDS011;26216;53.724;9.898;2023-11-19T00:05:43;4.43;;;3.33;;
40515;SDS011;26216;53.724;9.898;2023-11-19T00:08:09;5.40;;;3.67;;
40515;SDS011;26216;53.724;9.898;2023-11-19T00:10:35;4.80;;;3.53;;
40515;SDS011;26216;53.724;9.898;2023-11-19T00:13:01;4.40;;;3.35;;
40515;SDS011;26216;53.724;9.898;2023-11-19T00:15:27;4.32;;;3.10;;
40515;SDS011;26216;53.724;9.898;2023-11-19T00:17:53;4.53;;;3.58;;
40515;SDS011;26216;53.724;9.898;2023-11-19T00:20:20;4.50;;;3.35;;
40515;SDS011;26216;53.724;9.898;2023-11-19T00:22:49;5.47;;;3.92;;
40515;SDS011;26216;53.724;9.898;2023-11-19T00:25:18;4.78;;;3.30;;
40515;SDS011;26216;53.724;9.898;2023-11-19T00:27:44;4.75;;;3.17;;
40515;SDS011;26216;53.724;9.898;2023-11-19T00:30:10;3.72;;;2.78;;
40515;SDS011;26216;53.724;9.898;2023-11-19T00:32:36;4.22;;;3.05;;
40515;SDS011;26216;53.724;9.898;2023-11-19T00:35:04;3.92;;;2.42;;
40515;SDS011;26216;53.724;9.898;2023-11-19T00:37:31;3.28;;;2.63;;
40515;SDS011;26216;53.724;9.898;2023-11-19T00:39:56;3.20;;;2.53;;
40515;SDS011;26216;53.724;9.898;2023-11-19T00:42:23;4.35;;;3.10;;
40515;SDS011;26216;53.724;9.898;2023-11-19T00:44:49;3.50;;;2.60;;
40515;SDS011;26216;53.724;9.898;2023-11-19T00:47:16;3.30;;;2.65;;
40515;SDS011;26216;53.724;9.898;2023-11-19T00:49:41;3.13;;;2.22;;
40515;SDS011;26216;53.724;9.898;2023-11-19T00:52:08;3.47;;;2.63;;
40515;SDS011;26216;53.724;9.898;2023-11-19T00:54:33;3.15;;;2.40;;
40515;SDS011;26216;53.724;9.898;2023-11-19T00:56:59;3.28;;;2.38;;
40515;SDS011;26216;53.724;9.898;2023-11-19T00:59:26;2.97;;;2.17;;
40515;SDS011;26216;53.724;9.898;2023-11-19T01:01:53;3.30;;;2.30;;
40515;SDS011;26216;53.724;9.898;2023-11-19T01:04:20;3.25;;;2.05;;
40515;SDS011;26216;53.724;9.898;2023-11-19T01:06:45;2.60;;;1.70;;
40515;SDS011;26216;53.724;9.898;2023-11-19T01:09:11;3.67;;;1.92;;
40515;SDS011;26216;53.724;9.898;2023-11-19T01:11:37;2.42;;;1.65;;
40515;SDS011;26216;53.724;9.898;2023-11-19T01:14:03;2.42;;;1.50;;
40515;SDS011;26216;53.724;9.898;2023-11-19T01:16:28;2.63;;;1.70;;
40515;SDS011;26216;53.724;9.898;2023-11-19T01:18:54;2.08;;;1.58;;
40515;SDS011;26216;53.724;9.898;2023-11-19T01:21:21;2.10;;;1.50;;
40515;SDS011;26216;53.724;9.898;2023-11-19T01:23:47;2.08;;;1.30;;
40515;SDS011;26216;53.724;9.898;2023-11-19T01:26:13;2.58;;;1.70;;
40515;SDS011;26216;53.724;9.898;2023-11-19T01:28:39;2.10;;;1.40;;
40515;SDS011;26216;53.724;9.898;2023-11-19T01:31:08;2.05;;;1.40;;
40515;SDS011;26216;53.724;9.898;2023-11-19T01:33:35;1.83;;;1.33;;
40515;SDS011;26216;53.724;9.898;2023-11-19T01:36:01;1.83;;;1.20;;
40515;SDS011;26216;53.724;9.898;2023-11-19T01:38:27;2.13;;;1.40;;
40515;SDS011;26216;53.724;9.898;2023-11-19T01:40:57;1.80;;;1.30;;
40515;SDS011;26216;53.724;9.898;2023-11-19T01:43:43;1.70;;;1.30;;
40515;SDS011;26216;53.724;9.898;2023-11-19T01:46:12;1.50;;;1.23;;
40515;SDS011;26216;53.724;9.898;2023-11-19T01:48:42;2.70;;;1.42;;
40515;SDS011;26216;53.724;9.898;2023-11-19T01:51:10;1.42;;;1.05;;
40515;SDS011;26216;53.724;9.898;2023-11-19T01:53:41;1.63;;;1.00;;
40515;SDS011;26216;53.724;9.898;2023-11-19T01:56:09;1.10;;;0.90;;
40515;SDS011;26216;53.724;9.898;2023-11-19T01:58:37;1.52;;;1.05;;
40515;SDS011;26216;53.724;9.898;2023-11-19T02:01:05;1.85;;;1.08;;
40515;SDS011;26216;53.724;9.898;2023-11-19T02:03:32;1.27;;;0.93;;
40515;SDS011;26216;53.724;9.898;2023-11-19T02:05:59;1.25;;;1.00;;
40515;SDS011;26216;53.724;9.898;2023-11-19T02:08:25;0.90;;;0.80;;
40515;SDS011;26216;53.724;9.898;2023-11-19T02:10:51;1.50;;;0.98;;
40515;SDS011;26216;53.724;9.898;2023-11-19T02:13:18;0.98;;;0.90;;
40515;SDS011;26216;53.724;9.898;2023-11-19T02:15:44;1.50;;;1.00;;
40515;SDS011;26216;53.724;9.898;2023-11-19T02:18:19;1.23;;;0.80;;
40515;SDS011;26216;53.724;9.898;2023-11-19T02:20:45;0.82;;;0.80;;
40515;SDS011;26216;53.724;9.898;2023-11-19T02:23:12;1.17;;;0.80;;
40515;SDS011;26216;53.724;9.898;2023-11-19T02:25:39;1.15;;;0.90;;
40515;SDS011;26216;53.724;9.898;2023-11-19T02:28:06;0.88;;;0.80;;
40515;SDS011;26216;53.724;9.898;2023-11-19T02:30:32;1.23;;;0.85;;
40515;SDS011;26216;53.724;9.898;2023-11-19T02:32:58;1.10;;;0.80;;
40515;SDS011;26216;53.724;9.898;2023-11-19T02:35:28;0.60;;;0.60;;
40515;SDS011;26216;53.724;9.898;2023-11-19T02:37:57;0.73;;;0.73;;
40515;SDS011;26216;53.724;9.898;2023-11-19T02:40:26;0.98;;;0.70;;
40515;SDS011;26216;53.724;9.898;2023-11-19T02:42:53;1.05;;;0.70;;
40515;SDS011;26216;53.724;9.898;2023-11-19T02:45:20;1.00;;;0.68;;
40515;SDS011;26216;53.724;9.898;2023-11-19T02:47:50;0.60;;;0.60;;
40515;SDS011;26216;53.724;9.898;2023-11-19T02:50:17;0.93;;;0.80;;
40515;SDS011;26216;53.724;9.898;2023-11-19T02:52:50;0.88;;;0.70;;
40515;SDS011;26216;53.724;9.898;2023-11-19T02:55:17;0.45;;;0.45;;
40515;SDS011;26216;53.724;9.898;2023-11-19T02:57:43;1.00;;;0.80;;
40515;SDS011;26216;53.724;9.898;2023-11-19T03:00:16;0.73;;;0.70;;
40515;SDS011;26216;53.724;9.898;2023-11-19T03:02:46;0.73;;;0.73;;
40515;SDS011;26216;53.724;9.898;2023-11-19T03:05:13;1.10;;;0.90;;
40515;SDS011;26216;53.724;9.898;2023-11-19T03:07:44;0.70;;;0.70;;
40515;SDS011;26216;53.724;9.898;2023-11-19T03:10:10;0.77;;;0.73;;
40515;SDS011;26216;53.724;9.898;2023-11-19T03:12:40;0.80;;;0.73;;
40515;SDS011;26216;53.724;9.898;2023-11-19T03:15:06;0.95;;;0.80;;
40515;SDS011;26216;53.724;9.898;2023-11-19T03:17:35;1.50;;;0.75;;
40515;SDS011;26216;53.724;9.898;2023-11-19T03:20:05;1.10;;;0.90;;
40515;SDS011;26216;53.724;9.898;2023-11-19T03:22:34;0.68;;;0.63;;
40515;SDS011;26216;53.724;9.898;2023-11-19T03:25:01;1.05;;;0.95;;
40515;SDS011;26216;53.724;9.898;2023-11-19T03:27:27;0.70;;;0.70;;
40515;SDS011;26216;53.724;9.898;2023-11-19T03:29:53;1.10;;;1.00;;
40515;SDS011;26216;53.724;9.898;2023-11-19T03:32:18;1.13;;;0.88;;
40515;SDS011;26216;53.724;9.898;2023-11-19T03:34:45;0.80;;;0.75;;
40515;SDS011;26216;53.724;9.898;2023-11-19T03:37:10;1.77;;;1.40;;
40515;SDS011;26216;53.724;9.898;2023-11-19T03:39:36;1.17;;;1.08;;
40515;SDS011;26216;53.724;9.898;2023-11-19T03:42:02;1.10;;;0.98;;
40515;SDS011;26216;53.724;9.898;2023-11-19T03:44:28;1.58;;;0.90;;
40515;SDS011;26216;53.724;9.898;2023-11-19T03:46:54;1.35;;;1.23;;
40515;SDS011;26216;53.724;9.898;2023-11-19T03:49:20;1.40;;;1.20;;
40515;SDS011;26216;53.724;9.898;2023-11-19T03:51:45;1.88;;;1.40;;
40515;SDS011;26216;53.724;9.898;2023-11-19T03:54:12;1.02;;;0.93;;
40515;SDS011;26216;53.724;9.898;2023-11-19T03:56:37;1.10;;;0.98;;
40515;SDS011;26216;53.724;9.898;2023-11-19T03:59:03;1.30;;;1.20;;
40515;SDS011;26216;53.724;9.898;2023-11-19T04:01:29;1.23;;;1.00;;
40515;SDS011;26216;53.724;9.898;2023-11-19T04:03:55;1.20;;;1.00;;
40515;SDS011;26216;53.724;9.898;2023-11-19T04:06:21;1.38;;;1.15;;
40515;SDS011;26216;53.724;9.898;2023-11-19T04:08:46;1.35;;;1.00;;
40515;SDS011;26216;53.724;9.898;2023-11-19T04:11:12;1.25;;;1.00;;
40515;SDS011;26216;53.724;9.898;2023-11-19T04:13:38;1.75;;;1.05;;
40515;SDS011;26216;53.724;9.898;2023-11-19T04:16:04;1.08;;;0.98;;
40515;SDS011;26216;53.724;9.898;2023-11-19T04:18:30;1.30;;;1.10;;
40515;SDS011;26216;53.724;9.898;2023-11-19T04:20:57;1.70;;;1.40;;
40515;SDS011;26216;53.724;9.898;2023-11-19T04:23:23;2.45;;;1.50;;
40515;SDS011;26216;53.724;9.898;2023-11-19T04:25:50;2.40;;;1.40;;
40515;SDS011;26216;53.724;9.898;2023-11-19T04:28:15;1.50;;;1.40;;
40515;SDS011;26216;53.724;9.898;2023-11-19T04:30:41;1.92;;;1.40;;
40515;SDS011;26216;53.724;9.898;2023-11-19T04:33:07;2.42;;;1.70;;
40515;SDS011;26216;53.724;9.898;2023-11-19T04:35:33;2.10;;;1.60;;
40515;SDS011;26216;53.724;9.898;2023-11-19T04:37:58;2.40;;;1.70;;
40515;SDS011;26216;53.724;9.898;2023-11-19T04:40:24;2.30;;;1.73;;
40515;SDS011;26216;53.724;9.898;2023-11-19T04:42:50;3.72;;;2.47;;
40515;SDS011;26216;53.724;9.898;2023-11-19T04:45:16;2.13;;;1.80;;
40515;SDS011;26216;53.724;9.898;2023-11-19T04:47:44;2.15;;;1.80;;
40515;SDS011;26216;53.724;9.898;2023-11-19T04:50:11;2.63;;;2.13;;
40515;SDS011;26216;53.724;9.898;2023-11-19T04:52:39;2.03;;;1.77;;
40515;SDS011;26216;53.724;9.898;2023-11-19T04:55:05;2.15;;;1.90;;
40515;SDS011;26216;53.724;9.898;2023-11-19T04:57:31;2.47;;;1.90;;
40515;SDS011;26216;53.724;9.898;2023-11-19T04:59:58;2.50;;;1.98;;
40515;SDS011;26216;53.724;9.898;2023-11-19T05:02:23;2.97;;;2.38;;
40515;SDS011;26216;53.724;9.898;2023-11-19T05:04:49;3.10;;;2.63;;
40515;SDS011;26216;53.724;9.898;2023-11-19T05:07:15;3.33;;;2.58;;
40515;SDS011;26216;53.724;9.898;2023-11-19T05:09:41;4.25;;;2.60;;
40515;SDS011;26216;53.724;9.898;2023-11-19T05:12:08;2.88;;;2.58;;
40515;SDS011;26216;53.724;9.898;2023-11-19T05:14:37;3.22;;;2.45;;
40515;SDS011;26216;53.724;9.898;2023-11-19T05:17:03;4.38;;;2.95;;
40515;SDS011;26216;53.724;9.898;2023-11-19T05:19:29;3.90;;;3.03;;
40515;SDS011;26216;53.724;9.898;2023-11-19T05:21:54;3.55;;;3.00;;
40515;SDS011;26216;53.724;9.898;2023-11-19T05:24:20;3.67;;;3.22;;
40515;SDS011;26216;53.724;9.898;2023-11-19T05:26:46;4.80;;;3.20;;
40515;SDS011;26216;53.724;9.898;2023-11-19T05:29:12;5.00;;;4.15;;
40515;SDS011;26216;53.724;9.898;2023-11-19T05:31:38;3.75;;;3.28;;
40515;SDS011;26216;53.724;9.898;2023-11-19T05:34:04;5.18;;;3.83;;
40515;SDS011;26216;53.724;9.898;2023-11-19T05:36:29;4.40;;;3.63;;
40515;SDS011;26216;53.724;9.898;2023-11-19T05:38:55;4.68;;;3.58;;
40515;SDS011;26216;53.724;9.898;2023-11-19T05:41:21;3.65;;;3.22;;
40515;SDS011;26216;53.724;9.898;2023-11-19T05:43:47;3.90;;;3.30;;
40515;SDS011;26216;53.724;9.898;2023-11-19T05:46:12;5.22;;;3.70;;
40515;SDS011;26216;53.724;9.898;2023-11-19T05:48:38;4.38;;;3.45;;
40515;SDS011;26216;53.724;9.898;2023-11-19T05:51:04;4.30;;;3.40;;
40515;SDS011;26216;53.724;9.898;2023-11-19T05:53:30;4.47;;;3.80;;
40515;SDS011;26216;53.724;9.898;2023-11-19T05:55:57;4.95;;;3.78;;
40515;SDS011;26216;53.724;9.898;2023-11-19T05:58:26;5.32;;;4.63;;
40515;SDS011;26216;53.724;9.898;2023-11-19T06:00:57;6.45;;;5.03;;
40515;SDS011;26216;53.724;9.898;2023-11-19T06:03:22;7.00;;;5.25;;
40515;SDS011;26216;53.724;9.898;2023-11-19T06:05:49;6.30;;;4.80;;
40515;SDS011;26216;53.724;9.898;2023-11-19T06:08:15;8.00;;;5.75;;
40515;SDS011;26216;53.724;9.898;2023-11-19T06:10:42;6.22;;;4.88;;
40515;SDS011;26216;53.724;9.898;2023-11-19T06:13:08;6.95;;;5.97;;
40515;SDS011;26216;53.724;9.898;2023-11-19T06:15:36;8.38;;;5.93;;
40515;SDS011;26216;53.724;9.898;2023-11-19T06:18:02;8.93;;;5.18;;
40515;SDS011;26216;53.724;9.898;2023-11-19T06:20:29;6.82;;;4.95;;
40515;SDS011;26216;53.724;9.898;2023-11-19T06:22:56;7.43;;;4.95;;
40515;SDS011;26216;53.724;9.898;2023-11-19T06:25:22;7.32;;;5.47;;
40515;SDS011;26216;53.724;9.898;2023-11-19T06:27:49;8.00;;;5.30;;
40515;SDS011;26216;53.724;9.898;2023-11-19T06:30:15;9.00;;;4.65;;
40515;SDS011;26216;53.724;9.898;2023-11-19T06:32:41;8.63;;;4.95;;
40515;SDS011;26216;53.724;9.898;2023-11-19T06:35:07;8.57;;;4.50;;
40515;SDS011;26216;53.724;9.898;2023-11-19T06:37:34;7.70;;;4.78;;
40515;SDS011;26216;53.724;9.898;2023-11-19T06:40:07;9.05;;;4.57;;
40515;SDS011;26216;53.724;9.898;2023-11-19T06:42:34;9.35;;;4.47;;
40515;SDS011;26216;53.724;9.898;2023-11-19T06:45:00;7.43;;;3.35;;
40515;SDS011;26216;53.724;9.898;2023-11-19T06:47:27;7.97;;;4.30;;
40515;SDS011;26216;53.724;9.898;2023-11-19T06:49:53;8.82;;;3.78;;
40515;SDS011;26216;53.724;9.898;2023-11-19T06:52:19;7.65;;;3.22;;
40515;SDS011;26216;53.724;9.898;2023-11-19T06:54:45;6.78;;;3.20;;
40515;SDS011;26216;53.724;9.898;2023-11-19T06:57:11;7.70;;;2.90;;
40515;SDS011;26216;53.724;9.898;2023-11-19T06:59:38;5.40;;;2.75;;
40515;SDS011;26216;53.724;9.898;2023-11-19T07:02:04;7.57;;;3.22;;
40515;SDS011;26216;53.724;9.898;2023-11-19T07:04:30;11.60;;;3.90;;
40515;SDS011;26216;53.724;9.898;2023-11-19T07:06:56;11.23;;;3.22;;
40515;SDS011;26216;53.724;9.898;2023-11-19T07:09:22;8.63;;;3.00;;
40515;SDS011;26216;53.724;9.898;2023-11-19T07:11:48;8.57;;;2.75;;
40515;SDS011;26216;53.724;9.898;2023-11-19T07:14:17;15.57;;;3.33;;
40515;SDS011;26216;53.724;9.898;2023-11-19T07:16:43;7.97;;;2.75;;
40515;SDS011;26216;53.724;9.898;2023-11-19T07:19:11;6.80;;;2.42;;
40515;SDS011;26216;53.724;9.898;2023-11-19T07:21:37;9.27;;;2.70;;
40515;SDS011;26216;53.724;9.898;2023-11-19T07:24:09;15.18;;;4.30;;
40515;SDS011;26216;53.724;9.898;2023-11-19T07:26:35;10.13;;;2.83;;
40515;SDS011;26216;53.724;9.898;2023-11-19T07:29:02;11.30;;;3.33;;
40515;SDS011;26216;53.724;9.898;2023-11-19T07:31:28;7.53;;;3.08;;
40515;SDS011;26216;53.724;9.898;2023-11-19T07:33:54;10.65;;;2.85;;
40515;SDS011;26216;53.724;9.898;2023-11-19T07:36:20;13.25;;;2.72;;
40515;SDS011;26216;53.724;9.898;2023-11-19T07:38:46;9.40;;;2.75;;
40515;SDS011;26216;53.724;9.898;2023-11-19T07:41:12;8.98;;;2.80;;
40515;SDS011;26216;53.724;9.898;2023-11-19T07:43:39;13.52;;;3.17;;
40515;SDS011;26216;53.724;9.898;2023-11-19T07:46:10;9.02;;;2.55;;
40515;SDS011;26216;53.724;9.898;2023-11-19T07:51:04;14.25;;;3.70;;
40515;SDS011;26216;53.724;9.898;2023-11-19T07:53:30;10.48;;;3.30;;
40515;SDS011;26216;53.724;9.898;2023-11-19T07:55:55;17.83;;;4.07;;
40515;SDS011;26216;53.724;9.898;2023-11-19T07:58:21;14.82;;;3.83;;
40515;SDS011;26216;53.724;9.898;2023-11-19T08:00:47;16.52;;;3.58;;
40515;SDS011;26216;53.724;9.898;2023-11-19T08:03:14;14.90;;;3.95;;
40515;SDS011;26216;53.724;9.898;2023-11-19T08:05:40;16.45;;;3.90;;
40515;SDS011;26216;53.724;9.898;2023-11-19T08:08:06;15.70;;;4.55;;
40515;SDS011;26216;53.724;9.898;2023-11-19T08:10:32;17.90;;;4.13;;
40515;SDS011;26216;53.724;9.898;2023-11-19T08:13:01;17.23;;;4.38;;
40515;SDS011;26216;53.724;9.898;2023-11-19T08:15:27;15.05;;;3.60;;
40515;SDS011;26216;53.724;9.898;2023-11-19T08:17:56;11.82;;;3.20;;
40515;SDS011;26216;53.724;9.898;2023-11-19T08:20:22;14.63;;;4.07;;
40515;SDS011;26216;53.724;9.898;2023-11-19T08:22:49;9.98;;;2.53;;
40515;SDS011;26216;53.724;9.898;2023-11-19T08:25:18;10.68;;;2.83;;
40515;SDS011;26216;53.724;9.898;2023-11-19T08:27:44;18.15;;;4.35;;
40515;SDS011;26216;53.724;9.898;2023-11-19T08:30:10;13.25;;;3.67;;
40515;SDS011;26216;53.724;9.898;2023-11-19T08:32:36;10.73;;;3.38;;
40515;SDS011;26216;53.724;9.898;2023-11-19T08:35:02;18.15;;;4.25;;
40515;SDS011;26216;53.724;9.898;2023-11-19T08:37:28;14.25;;;3.55;;
40515;SDS011;26216;53.724;9.898;2023-11-19T08:39:54;16.80;;;4.43;;
40515;SDS011;26216;53.724;9.898;2023-11-19T08:42:23;19.48;;;4.35;;
40515;SDS011;26216;53.724;9.898;2023-11-19T08:44:49;20.30;;;5.18;;
40515;SDS011;26216;53.724;9.898;2023-11-19T08:47:16;17.23;;;4.30;;
40515;SDS011;26216;53.724;9.898;2023-11-19T08:49:45;18.02;;;3.97;;
40515;SDS011;26216;53.724;9.898;2023-11-19T08:52:11;15.60;;;4.07;;
40515;SDS011;26216;53.724;9.898;2023-11-19T08:54:37;21.52;;;4.45;;
40515;SDS011;26216;53.724;9.898;2023-11-19T08:57:03;16.20;;;3.67;;
40515;SDS011;26216;53.724;9.898;2023-11-19T08:59:29;20.52;;;4.60;;
40515;SDS011;26216;53.724;9.898;2023-11-19T09:01:55;19.20;;;3.97;;
40515;SDS011;26216;53.724;9.898;2023-11-19T09:04:21;14.85;;;4.10;;
40515;SDS011;26216;53.724;9.898;2023-11-19T09:06:50;21.60;;;4.38;;
40515;SDS011;26216;53.724;9.898;2023-11-19T09:09:16;21.25;;;4.65;;
40515;SDS011;26216;53.724;9.898;2023-11-19T09:11:42;17.17;;;3.90;;
40515;SDS011;26216;53.724;9.898;2023-11-19T09:14:08;15.30;;;4.03;;
40515;SDS011;26216;53.724;9.898;2023-11-19T09:16:34;17.90;;;4.35;;
40515;SDS011;26216;53.724;9.898;2023-11-19T09:18:59;19.98;;;4.72;;
40515;SDS011;26216;53.724;9.898;2023-11-19T09:21:27;21.08;;;4.70;;
40515;SDS011;26216;53.724;9.898;2023-11-19T09:23:54;15.05;;;3.67;;
40515;SDS011;26216;53.724;9.898;2023-11-19T09:26:20;19.92;;;4.82;;
40515;SDS011;26216;53.724;9.898;2023-11-19T09:28:46;18.65;;;4.28;;
40515;SDS011;26216;53.724;9.898;2023-11-19T09:31:15;20.10;;;4.53;;
40515;SDS011;26216;53.724;9.898;2023-11-19T09:33:44;18.40;;;5.30;;
40515;SDS011;26216;53.724;9.898;2023-11-19T09:36:13;16.42;;;3.97;;
40515;SDS011;26216;53.724;9.898;2023-11-19T09:38:39;18.80;;;4.72;;
40515;SDS011;26216;53.724;9.898;2023-11-19T09:41:06;19.67;;;4.22;;
40515;SDS011;26216;53.724;9.898;2023-11-19T09:43:37;16.52;;;4.22;;
40515;SDS011;26216;53.724;9.898;2023-11-19T09:46:08;15.52;;;4.60;;
40515;SDS011;26216;53.724;9.898;2023-11-19T09:48:37;14.70;;;4.00;;
40515;SDS011;26216;53.724;9.898;2023-11-19T09:51:09;16.40;;;3.95;;
40515;SDS011;26216;53.724;9.898;2023-11-19T09:53:36;18.40;;;4.53;;
40515;SDS011;26216;53.724;9.898;2023-11-19T09:56:03;17.27;;;4.35;;
40515;SDS011;26216;53.724;9.898;2023-11-19T09:58:31;14.55;;;4.25;;
40515;SDS011;26216;53.724;9.898;2023-11-19T10:01:01;18.83;;;5.32;;
40515;SDS011;26216;53.724;9.898;2023-11-19T10:03:36;14.07;;;4.07;;
40515;SDS011;26216;53.724;9.898;2023-11-19T10:06:04;18.33;;;4.32;;
40515;SDS011;26216;53.724;9.898;2023-11-19T10:08:32;19.25;;;4.45;;
40515;SDS011;26216;53.724;9.898;2023-11-19T10:10:58;21.42;;;4.22;;
40515;SDS011;26216;53.724;9.898;2023-11-19T10:13:27;16.42;;;4.05;;
40515;SDS011;26216;53.724;9.898;2023-11-19T10:15:55;16.50;;;4.78;;
40515;SDS011;26216;53.724;9.898;2023-11-19T10:18:25;21.25;;;5.10;;
40515;SDS011;26216;53.724;9.898;2023-11-19T10:20:52;18.65;;;5.07;;
40515;SDS011;26216;53.724;9.898;2023-11-19T10:23:18;23.08;;;5.22;;
40515;SDS011;26216;53.724;9.898;2023-11-19T10:25:44;20.15;;;4.32;;
40515;SDS011;26216;53.724;9.898;2023-11-19T10:28:10;17.10;;;4.78;;
40515;SDS011;26216;53.724;9.898;2023-11-19T10:30:36;17.27;;;3.90;;
40515;SDS011;26216;53.724;9.898;2023-11-19T10:33:08;16.77;;;4.40;;
40515;SDS011;26216;53.724;9.898;2023-11-19T10:40:48;21.50;;;5.53;;
40515;SDS011;26216;53.724;9.898;2023-11-19T10:43:16;15.38;;;4.20;;
40515;SDS011;26216;53.724;9.898;2023-11-19T10:45:42;19.48;;;4.60;;
40515;SDS011;26216;53.724;9.898;2023-11-19T10:48:09;18.83;;;3.95;;
40515;SDS011;26216;53.724;9.898;2023-11-19T10:50:36;19.20;;;4.53;;
40515;SDS011;26216;53.724;9.898;2023-11-19T10:53:03;16.73;;;4.38;;
40515;SDS011;26216;53.724;9.898;2023-11-19T10:55:30;19.33;;;4.45;;
40515;SDS011;26216;53.724;9.898;2023-11-19T10:58:04;19.52;;;4.13;;
40515;SDS011;26216;53.724;9.898;2023-11-19T11:00:44;22.45;;;4.53;;
40515;SDS011;26216;53.724;9.898;2023-11-19T11:03:17;16.90;;;4.43;;
40515;SDS011;26216;53.724;9.898;2023-11-19T11:05:46;15.55;;;3.22;;
40515;SDS011;26216;53.724;9.898;2023-11-19T11:08:13;14.15;;;3.50;;
40515;SDS011;26216;53.724;9.898;2023-11-19T11:10:39;20.42;;;4.28;;
40515;SDS011;26216;53.724;9.898;2023-11-19T11:13:09;12.10;;;3.72;;
40515;SDS011;26216;53.724;9.898;2023-11-19T11:15:38;16.05;;;4.28;;
40515;SDS011;26216;53.724;9.898;2023-11-19T11:18:07;19.25;;;4.43;;
40515;SDS011;26216;53.724;9.898;2023-11-19T11:20:34;21.42;;;4.60;;
40515;SDS011;26216;53.724;9.898;2023-11-19T11:26:09;16.48;;;3.75;;
40515;SDS011;26216;53.724;9.898;2023-11-19T11:37:21;10.52;;;3.05;;
40515;SDS011;26216;53.724;9.898;2023-11-19T11:39:53;18.45;;;5.32;;
40515;SDS011;26216;53.724;9.898;2023-11-19T11:45:09;14.85;;;3.80;;
40515;SDS011;26216;53.724;9.898;2023-11-19T11:50:18;20.10;;;4.45;;
40515;SDS011;26216;53.724;9.898;2023-11-19T11:57:51;13.52;;;3.97;;
40515;SDS011;26216;53.724;9.898;2023-11-19T12:02:54;16.73;;;3.83;;
40515;SDS011;26216;53.724;9.898;2023-11-19T12:05:23;10.95;;;3.60;;
40515;SDS011;26216;53.724;9.898;2023-11-19T12:08:01;14.43;;;3.88;;
40515;SDS011;26216;53.724;9.898;2023-11-19T12:10:30;13.93;;;4.20;;
40515;SDS011;26216;53.724;9.898;2023-11-19T12:13:00;20.80;;;5.47;;
40515;SDS011;26216;53.724;9.898;2023-11-19T12:15:27;14.63;;;3.25;;
40515;SDS011;26216;53.724;9.898;2023-11-19T12:17:54;12.45;;;3.88;;
40515;SDS011;26216;53.724;9.898;2023-11-19T12:20:24;11.48;;;3.33;;
40515;SDS011;26216;53.724;9.898;2023-11-19T12:22:51;17.17;;;3.70;;
40515;SDS011;26216;53.724;9.898;2023-11-19T12:25:19;13.23;;;4.05;;
40515;SDS011;26216;53.724;9.898;2023-11-19T12:27:46;11.38;;;3.35;;
40515;SDS011;26216;53.724;9.898;2023-11-19T12:30:32;15.73;;;3.90;;
40515;SDS011;26216;53.724;9.898;2023-11-19T12:32:58;16.90;;;4.00;;
40515;SDS011;26216;53.724;9.898;2023-11-19T12:35:24;17.85;;;4.07;;
40515;SDS011;26216;53.724;9.898;2023-11-19T12:37:50;14.00;;;4.05;;
40515;SDS011;26216;53.724;9.898;2023-11-19T12:40:18;15.98;;;3.95;;
40515;SDS011;26216;53.724;9.898;2023-11-19T12:42:44;16.65;;;4.63;;
40515;SDS011;26216;53.724;9.898;2023-11-19T12:45:11;20.77;;;5.30;;
40515;SDS011;26216;53.724;9.898;2023-11-19T12:47:38;11.93;;;3.08;;
40515;SDS011;26216;53.724;9.898;2023-11-19T12:50:08;18.67;;;5.55;;
40515;SDS011;26216;53.724;9.898;2023-11-19T12:52:35;24.42;;;5.95;;
40515;SDS011;26216;53.724;9.898;2023-11-19T12:55:02;15.85;;;4.05;;
40515;SDS011;26216;53.724;9.898;2023-11-19T12:57:39;14.52;;;3.40;;
40515;SDS011;26216;53.724;9.898;2023-11-19T13:00:06;16.75;;;4.13;;
40515;SDS011;26216;53.724;9.898;2023-11-19T13:02:48;14.25;;;3.95;;
40515;SDS011;26216;53.724;9.898;2023-11-19T13:05:24;14.25;;;4.15;;
40515;SDS011;26216;53.724;9.898;2023-11-19T13:08:00;15.18;;;3.42;;
40515;SDS011;26216;53.724;9.898;2023-11-19T13:13:21;14.40;;;3.72;;
40515;SDS011;26216;53.724;9.898;2023-11-19T13:15:47;15.90;;;4.25;;
40515;SDS011;26216;53.724;9.898;2023-11-19T13:18:15;15.02;;;3.85;;
40515;SDS011;26216;53.724;9.898;2023-11-19T13:20:41;13.85;;;3.50;;
40515;SDS011;26216;53.724;9.898;2023-11-19T13:23:08;17.88;;;4.72;;
40515;SDS011;26216;53.724;9.898;2023-11-19T13:25:35;22.88;;;4.25;;
40515;SDS011;26216;53.724;9.898;2023-11-19T13:28:01;11.40;;;3.78;;
40515;SDS011;26216;53.724;9.898;2023-11-19T13:30:27;13.20;;;3.63;;
40515;SDS011;26216;53.724;9.898;2023-11-19T13:32:54;16.45;;;4.47;;
40515;SDS011;26216;53.724;9.898;2023-11-19T13:35:20;9.63;;;3.50;;
40515;SDS011;26216;53.724;9.898;2023-11-19T13:37:47;17.70;;;4.45;;
40515;SDS011;26216;53.724;9.898;2023-11-19T13:40:13;14.32;;;3.45;;
40515;SDS011;26216;53.724;9.898;2023-11-19T13:42:43;12.90;;;3.70;;
40515;SDS011;26216;53.724;9.898;2023-11-19T13:45:10;16.85;;;3.85;;
40515;SDS011;26216;53.724;9.898;2023-11-19T13:47:38;14.10;;;3.53;;
40515;SDS011;26216;53.724;9.898;2023-11-19T13:50:11;14.77;;;3.40;;
40515;SDS011;26216;53.724;9.898;2023-11-19T13:52:38;16.90;;;4.07;;
40515;SDS011;26216;53.724;9.898;2023-11-19T13:55:09;14.68;;;4.45;;
40515;SDS011;26216;53.724;9.898;2023-11-19T13:57:36;15.05;;;3.85;;
40515;SDS011;26216;53.724;9.898;2023-11-19T14:00:03;13.73;;;3.75;;
40515;SDS011;26216;53.724;9.898;2023-11-19T14:02:38;11.75;;;3.15;;
40515;SDS011;26216;53.724;9.898;2023-11-19T14:05:05;18.85;;;4.30;;
40515;SDS011;26216;53.724;9.898;2023-11-19T14:07:32;15.23;;;3.42;;
40515;SDS011;26216;53.724;9.898;2023-11-19T14:09:58;16.48;;;5.18;;
40515;SDS011;26216;53.724;9.898;2023-11-19T14:12:24;18.15;;;4.45;;
40515;SDS011;26216;53.724;9.898;2023-11-19T14:14:50;17.75;;;4.70;;
40515;SDS011;26216;53.724;9.898;2023-11-19T14:17:15;15.77;;;4.60;;
40515;SDS011;26216;53.724;9.898;2023-11-19T14:19:42;19.23;;;5.20;;
40515;SDS011;26216;53.724;9.898;2023-11-19T14:22:09;12.80;;;3.70;;
40515;SDS011;26216;53.724;9.898;2023-11-19T14:24:35;11.98;;;3.63;;
40515;SDS011;26216;53.724;9.898;2023-11-19T14:27:01;10.27;;;3.05;;
40515;SDS011;26216;53.724;9.898;2023-11-19T14:29:27;11.02;;;3.03;;
40515;SDS011;26216;53.724;9.898;2023-11-19T14:31:55;9.82;;;2.75;;
40515;SDS011;26216;53.724;9.898;2023-11-19T14:34:22;12.82;;;3.35;;
40515;SDS011;26216;53.724;9.898;2023-11-19T14:36:48;14.10;;;3.67;;
40515;SDS011;26216;53.724;9.898;2023-11-19T14:39:14;9.30;;;2.40;;
40515;SDS011;26216;53.724;9.898;2023-11-19T14:41:42;11.82;;;3.00;;
40515;SDS011;26216;53.724;9.898;2023-11-19T14:44:08;12.32;;;2.70;;
40515;SDS011;26216;53.724;9.898;2023-11-19T14:46:35;8.82;;;2.38;;
40515;SDS011;26216;53.724;9.898;2023-11-19T14:49:01;8.07;;;2.17;;
40515;SDS011;26216;53.724;9.898;2023-11-19T14:51:29;8.18;;;2.10;;
40515;SDS011;26216;53.724;9.898;2023-11-19T14:53:55;7.45;;;1.70;;
40515;SDS011;26216;53.724;9.898;2023-11-19T14:56:20;5.10;;;1.67;;
40515;SDS011;26216;53.724;9.898;2023-11-19T14:58:46;4.63;;;1.10;;
40515;SDS011;26216;53.724;9.898;2023-11-19T15:01:15;4.53;;;1.40;;
40515;SDS011;26216;53.724;9.898;2023-11-19T15:03:41;6.78;;;1.38;;
40515;SDS011;26216;53.724;9.898;2023-11-19T15:06:09;3.45;;;0.90;;
40515;SDS011;26216;53.724;9.898;2023-11-19T15:08:36;3.88;;;1.13;;
40515;SDS011;26216;53.724;9.898;2023-11-19T15:11:02;3.00;;;1.23;;
40515;SDS011;26216;53.724;9.898;2023-11-19T15:13:30;4.10;;;0.98;;
40515;SDS011;26216;53.724;9.898;2023-11-19T15:15:57;2.92;;;0.80;;